Time;durP1;ratioP1;P1;durP2;ratioP2;P2;SDS_P1;SDS_P2;PMS_P1;PMS_P2;Temp;Humidity;BMP_temperature;BMP_pressure;BME280_temperature;BME280_humidity;BME280_pressure;Samples;Min_cycle;Max_cycle;Signal;HPM_P1;HPM_P2
2022/05/13 00:02:24;;;;;;;11.10;3.00;;;;;;;9.73;86.06;101667.56;5260275;28;20043;-62
2022/05/13 00:04:56;;;;;;;7.57;2.80;;;;;;;9.71;87.10;101663.28;5258479;28;20046;-62
2022/05/13 00:07:27;;;;;;;10.18;2.88;;;;;;;9.70;87.30;101662.41;5259775;28;20036;-63
2022/05/13 00:10:05;;;;;;;7.13;2.83;;;;;;;9.69;87.27;101655.38;5259566;28;20085;-63
2022/05/13 00:12:40;;;;;;;11.13;3.42;;;;;;;9.53;85.58;101665.22;5265234;28;20597;-62
2022/05/13 00:15:19;;;;;;;12.25;3.47;;;;;;;9.60;87.84;101656.75;5259998;28;20233;-63
2022/05/13 00:17:53;;;;;;;11.20;3.28;;;;;;;9.63;88.19;101663.75;5268588;28;20056;-63
2022/05/13 00:20:25;;;;;;;9.68;3.80;;;;;;;9.49;86.81;101655.69;5271400;28;20033;-63
2022/05/13 00:22:57;;;;;;;12.00;3.47;;;;;;;9.40;86.64;101663.28;5268883;28;20035;-63
2022/05/13 00:25:35;;;;;;;9.02;3.30;;;;;;;9.40;87.87;101660.63;5259461;28;20537;-63
2022/05/13 00:28:08;;;;;;;12.10;4.45;;;;;;;9.35;86.95;101661.84;5257759;28;20024;-63
2022/05/13 00:30:42;;;;;;;10.48;3.88;;;;;;;9.50;89.45;101665.41;5264143;28;20020;-63
2022/05/13 00:33:15;;;;;;;13.45;3.95;;;;;;;9.40;89.15;101652.63;5263089;28;20513;-63
2022/05/13 00:35:47;;;;;;;12.00;3.40;;;;;;;9.23;88.53;101647.44;5261216;28;21051;-63
2022/05/13 00:38:18;;;;;;;12.52;3.38;;;;;;;9.19;87.43;101656.53;5258365;28;20032;-63
2022/05/13 00:40:50;;;;;;;13.27;4.70;;;;;;;9.23;88.96;101658.94;5257301;28;20024;-63
2022/05/13 00:43:40;;;;;;;9.95;3.65;;;;;;;9.25;89.19;101658.84;5266298;28;20029;-63
2022/05/13 00:46:12;;;;;;;10.15;3.58;;;;;;;9.18;89.54;101657.47;5261125;28;20568;-63
2022/05/13 00:48:44;;;;;;;10.65;3.78;;;;;;;9.23;90.61;101658.94;5268595;28;20028;-63
2022/05/13 00:51:22;;;;;;;11.32;3.80;;;;;;;9.26;90.15;101654.38;5261162;28;20040;-64
2022/05/13 00:53:55;;;;;;;11.02;3.88;;;;;;;9.17;89.68;101653.97;5258473;28;20036;-63
2022/05/13 00:56:27;;;;;;;10.88;3.80;;;;;;;9.23;89.73;101650.09;5267591;28;20020;-63
2022/05/13 00:59:02;;;;;;;7.72;3.05;;;;;;;9.03;89.04;101660.09;5261833;28;20024;-63
2022/05/13 01:01:33;;;;;;;8.15;3.45;;;;;;;9.06;88.58;101652.88;5262213;28;20043;-63
2022/05/13 01:04:08;;;;;;;9.05;2.88;;;;;;;8.94;87.76;101657.09;5263712;28;20028;-62
2022/05/13 01:06:43;;;;;;;13.02;3.00;;;;;;;8.88;88.30;101652.09;5262518;28;20056;-62
2022/05/13 01:09:14;;;;;;;9.18;2.80;;;;;;;8.96;89.05;101650.72;5260879;28;20493;-62
2022/05/13 01:11:52;;;;;;;10.75;3.30;;;;;;;8.81;87.94;101657.75;5262109;28;20459;-62
2022/05/13 01:14:29;;;;;;;9.02;2.40;;;;;;;8.78;86.95;101665.06;5256192;28;20517;-62
2022/05/13 01:20:30;;;;;;;8.13;2.80;;;;;;;8.90;90.10;101651.06;5236101;28;20116;-63
2022/05/13 01:23:05;;;;;;;8.85;2.88;;;;;;;8.76;88.23;101646.53;5264010;28;20048;-63
2022/05/13 01:25:42;;;;;;;10.48;2.47;;;;;;;8.93;89.84;101647.38;5261974;28;20033;-63
2022/05/13 01:28:18;;;;;;;10.65;3.45;;;;;;;8.85;88.25;101645.16;5260912;28;20115;-63
2022/05/13 01:30:53;;;;;;;12.40;2.58;;;;;;;8.77;87.29;101648.25;5258044;28;20060;-63
2022/05/13 01:33:26;;;;;;;8.75;2.63;;;;;;;8.63;86.64;101651.69;5261302;28;20037;-63
2022/05/13 01:36:00;;;;;;;5.65;2.10;;;;;;;8.62;86.65;101657.06;5257121;28;20074;-63
2022/05/13 01:38:35;;;;;;;9.05;2.45;;;;;;;8.68;87.78;101655.88;5260016;28;20525;-63
2022/05/13 01:41:09;;;;;;;9.77;2.40;;;;;;;8.69;88.68;101660.28;5259354;28;20593;-63
2022/05/13 01:43:42;;;;;;;5.55;2.10;;;;;;;8.69;87.31;101654.94;5259866;28;20047;-63
2022/05/13 01:46:14;;;;;;;8.30;2.20;;;;;;;8.72;87.53;101654.75;5260478;28;20132;-63
2022/05/13 01:48:46;;;;;;;6.25;2.20;;;;;;;8.87;87.21;101653.06;5265917;28;20028;-64
2022/05/13 01:51:19;;;;;;;9.82;3.22;;;;;;;8.84;85.54;101659.41;5261686;28;20064;-63
2022/05/13 01:53:50;;;;;;;9.07;2.85;;;;;;;8.90;85.44;101660.84;5270437;28;20036;-63
2022/05/13 01:56:22;;;;;;;9.85;2.13;;;;;;;8.89;85.51;101648.50;5267087;28;20613;-62
2022/05/13 01:58:53;;;;;;;10.23;2.03;;;;;;;8.90;85.47;101652.84;5262831;28;20120;-62
2022/05/13 02:01:24;;;;;;;6.32;2.10;;;;;;;8.93;85.63;101658.03;5266156;28;20056;-63
2022/05/13 02:03:56;;;;;;;8.80;2.10;;;;;;;9.01;85.44;101656.66;5260987;28;20040;-63
2022/05/13 02:06:28;;;;;;;6.03;2.20;;;;;;;8.97;85.15;101655.09;5266012;28;20097;-63
2022/05/13 02:08:59;;;;;;;7.43;1.90;;;;;;;9.00;85.29;101659.41;5265272;28;20334;-63
2022/05/13 02:11:31;;;;;;;8.77;2.20;;;;;;;9.10;86.87;101657.06;5262718;28;21053;-63
2022/05/13 02:14:04;;;;;;;9.68;2.35;;;;;;;9.03;85.68;101656.53;5263768;28;20029;-62
2022/05/13 02:16:37;;;;;;;11.27;2.20;;;;;;;9.02;85.53;101662.81;5265158;28;20040;-63
2022/05/13 02:19:09;;;;;;;13.35;2.28;;;;;;;9.05;86.01;101654.69;5274453;28;20032;-63
2022/05/13 02:21:40;;;;;;;11.93;2.47;;;;;;;9.10;87.10;101649.06;5278050;28;20035;-63
2022/05/13 02:24:12;;;;;;;8.25;2.80;;;;;;;9.07;86.51;101654.56;5264805;28;20028;-63
2022/05/13 02:26:44;;;;;;;7.38;1.88;;;;;;;9.05;85.74;101646.69;5262699;28;20028;-63
2022/05/13 02:29:15;;;;;;;8.55;1.98;;;;;;;9.06;86.31;101648.41;5264117;28;20066;-63
2022/05/13 02:31:46;;;;;;;8.23;2.25;;;;;;;9.10;86.15;101657.06;5260897;28;20032;-62
2022/05/13 02:34:18;;;;;;;11.52;2.78;;;;;;;9.21;88.38;101654.66;5263584;28;20137;-62
2022/05/13 02:36:49;;;;;;;10.18;2.72;;;;;;;9.14;87.68;101653.28;5261948;28;20539;-62
2022/05/13 02:39:20;;;;;;;6.95;2.28;;;;;;;9.12;87.23;101642.72;5261389;28;20047;-63
2022/05/13 02:41:51;;;;;;;8.38;2.15;;;;;;;9.12;86.56;101647.19;5264341;28;20140;-63
2022/05/13 02:44:23;;;;;;;8.98;2.40;;;;;;;9.20;87.97;101652.91;5261863;28;20075;-63
2022/05/13 02:46:54;;;;;;;6.85;2.00;;;;;;;9.20;87.14;101648.47;5263599;28;20093;-63
2022/05/13 02:49:25;;;;;;;12.10;2.35;;;;;;;9.20;86.51;101642.25;5264344;28;20028;-63
2022/05/13 02:51:57;;;;;;;10.00;2.70;;;;;;;9.29;86.55;101644.41;5263263;28;20620;-63
2022/05/13 02:54:28;;;;;;;10.15;2.40;;;;;;;9.32;86.90;101640.69;5260592;28;20032;-63
2022/05/13 02:56:59;;;;;;;9.02;2.58;;;;;;;9.36;87.13;101636.94;5263653;28;20093;-63
2022/05/13 02:59:31;;;;;;;9.05;2.80;;;;;;;9.40;87.37;101638.47;5264838;28;20072;-63
2022/05/13 03:02:02;;;;;;;8.57;2.63;;;;;;;9.48;88.78;101641.50;5262137;28;21220;-62
2022/05/13 03:04:33;;;;;;;12.75;2.95;;;;;;;9.57;89.41;101643.63;5263879;28;20492;-63
2022/05/13 03:07:05;;;;;;;10.02;3.05;;;;;;;9.57;88.45;101656.13;5263183;28;20071;-62
2022/05/13 03:09:36;;;;;;;10.50;2.97;;;;;;;9.52;88.38;101652.84;5262775;28;20032;-62
2022/05/13 03:12:09;;;;;;;12.15;2.92;;;;;;;9.54;87.65;101643.81;5259407;28;20035;-62
2022/05/13 03:14:40;;;;;;;11.68;2.88;;;;;;;9.57;87.80;101648.97;5260421;28;20040;-63
2022/05/13 03:17:11;;;;;;;14.10;3.28;;;;;;;9.59;88.69;101641.75;5262649;28;20064;-63
2022/05/13 03:19:43;;;;;;;10.88;2.92;;;;;;;9.60;88.39;101640.78;5262664;28;20162;-63
2022/05/13 03:22:14;;;;;;;10.20;3.72;;;;;;;9.63;89.14;101639.75;5268988;28;20028;-62
2022/05/13 03:24:45;;;;;;;12.80;3.63;;;;;;;9.60;88.43;101634.59;5264067;28;20083;-63
2022/05/13 03:27:16;;;;;;;9.77;3.10;;;;;;;9.64;88.21;101632.59;5261803;28;20096;-63
2022/05/13 03:29:48;;;;;;;11.57;3.20;;;;;;;9.62;88.88;101636.22;5265755;28;20463;-63
2022/05/13 03:32:19;;;;;;;13.15;3.35;;;;;;;9.64;88.84;101632.59;5260136;28;20060;-63
2022/05/13 03:34:50;;;;;;;10.68;3.55;;;;;;;9.62;89.61;101630.03;5261721;28;20032;-63
2022/05/13 03:37:21;;;;;;;13.63;3.50;;;;;;;9.51;88.97;101629.81;5263965;28;20036;-63
2022/05/13 03:39:53;;;;;;;10.05;3.17;;;;;;;9.49;88.91;101626.38;5263267;28;20043;-63
2022/05/13 03:42:24;;;;;;;8.13;3.13;;;;;;;9.62;91.05;101628.22;5266203;28;20587;-63
2022/05/13 03:44:55;;;;;;;19.35;4.32;;;;;;;9.52;90.08;101635.06;5270070;28;20024;-63
2022/05/13 03:47:27;;;;;;;13.32;3.60;;;;;;;9.53;90.23;101631.47;5268978;28;20029;-63
2022/05/13 03:49:58;;;;;;;10.73;3.40;;;;;;;9.44;89.99;101639.13;5271544;28;20406;-62
2022/05/13 03:52:30;;;;;;;13.40;3.90;;;;;;;9.41;91.21;101630.38;5265653;28;20477;-62
2022/05/13 03:55:05;;;;;;;12.75;3.95;;;;;;;9.49;92.12;101635.25;5269598;28;20024;-63
2022/05/13 03:57:36;;;;;;;9.68;3.83;;;;;;;9.35;90.51;101641.38;5264310;28;20471;-62
2022/05/13 04:00:09;;;;;;;14.18;3.80;;;;;;;9.51;92.29;101636.03;5265580;28;20178;-63
2022/05/13 04:02:41;;;;;;;15.02;4.00;;;;;;;9.34;91.08;101636.13;5258376;28;20039;-63
2022/05/13 04:10:53;;;;;;;12.15;3.78;;;;;;;9.51;92.34;101643.13;5263342;28;20043;-63
2022/05/13 04:16:14;;;;;;;14.75;4.10;;;;;;;9.45;92.25;101641.69;5264202;28;20045;-63
2022/05/13 04:18:47;;;;;;;14.10;4.50;;;;;;;9.30;91.97;101646.13;5265291;28;20040;-63
2022/05/13 04:21:24;;;;;;;13.73;4.63;;;;;;;9.39;93.29;101639.38;5269306;28;20478;-63
2022/05/13 04:23:59;;;;;;;12.52;4.20;;;;;;;9.38;93.41;101638.53;5266457;28;20033;-63
2022/05/13 04:26:30;;;;;;;10.85;4.00;;;;;;;9.45;93.31;101636.34;5267542;28;20051;-63
2022/05/13 04:29:03;;;;;;;13.32;4.25;;;;;;;9.47;93.70;101645.13;5266175;28;20025;-63
2022/05/13 04:31:38;;;;;;;13.52;4.38;;;;;;;9.44;93.60;101644.47;5264582;28;20394;-63
2022/05/13 04:34:10;;;;;;;13.32;4.05;;;;;;;9.49;93.27;101655.69;5266220;28;20348;-63
2022/05/13 04:36:41;;;;;;;15.98;4.45;;;;;;;9.33;92.83;101645.94;5266361;28;20085;-63
2022/05/13 04:39:13;;;;;;;12.75;4.47;;;;;;;9.32;92.96;101646.00;5267788;28;20025;-63
2022/05/13 04:44:34;;;;;;;11.93;3.92;;;;;;;9.35;92.60;101652.03;5266117;28;20414;-63
2022/05/13 04:48:15;;;;;;;14.90;4.50;;;;;;;9.34;92.78;101665.41;5264538;28;20036;-63
2022/05/13 04:49:57;;;;;;;14.05;4.60;;;;;;;9.48;93.59;101660.16;5267354;28;20198;-63
2022/05/13 04:52:29;;;;;;;12.55;4.30;;;;;;;9.52;93.48;101667.03;5266618;28;20036;-63
2022/05/13 04:55:00;;;;;;;16.92;4.90;;;;;;;9.60;92.96;101674.56;5268042;28;20469;-63
2022/05/13 04:57:31;;;;;;;12.73;4.57;;;;;;;9.81;93.50;101667.94;5273046;28;20523;-63
2022/05/13 05:00:05;;;;;;;15.45;4.80;;;;;;;9.88;93.04;101672.94;5264250;28;20056;-63
2022/05/13 05:02:36;;;;;;;14.27;4.20;;;;;;;9.89;92.11;101675.47;5265732;28;20117;-63
2022/05/13 05:05:07;;;;;;;12.02;4.32;;;;;;;9.98;91.70;101677.59;5267715;28;20024;-65
2022/05/13 05:07:39;;;;;;;13.88;4.50;;;;;;;10.06;91.89;101687.78;5263019;28;20042;-63
2022/05/13 05:10:10;;;;;;;13.15;5.15;;;;;;;10.14;91.61;101687.31;5257410;28;20041;-63
2022/05/13 05:12:41;;;;;;;13.70;4.32;;;;;;;10.12;90.80;101683.91;5260606;28;20032;-63
2022/05/13 05:15:13;;;;;;;15.50;4.40;;;;;;;10.17;91.07;101684.47;5275808;28;20042;-62
2022/05/13 05:17:45;;;;;;;12.60;4.25;;;;;;;10.18;90.92;101697.72;5268390;28;20047;-63
2022/05/13 05:20:18;;;;;;;13.70;4.30;;;;;;;10.24;91.12;101701.84;5267140;28;20032;-63
2022/05/13 05:22:49;;;;;;;12.48;3.97;;;;;;;10.31;90.40;101699.66;5275613;28;20047;-62
2022/05/13 05:25:21;;;;;;;14.40;4.38;;;;;;;10.45;91.35;101704.13;5279072;28;20634;-63
2022/05/13 05:27:53;;;;;;;14.40;4.43;;;;;;;10.57;90.91;101704.25;5277040;28;20097;-63
2022/05/13 05:30:25;;;;;;;14.32;4.20;;;;;;;10.52;89.16;101709.00;5277548;28;20123;-63
2022/05/13 05:32:56;;;;;;;10.80;4.78;;;;;;;10.62;89.50;101706.59;5273391;28;20104;-62
2022/05/13 05:35:29;;;;;;;10.73;3.88;;;;;;;10.76;90.13;101717.28;5278705;28;20069;-63
2022/05/13 05:38:00;;;;;;;18.00;4.30;;;;;;;10.81;89.17;101726.81;5276921;28;20032;-63
2022/05/13 05:40:32;;;;;;;12.73;4.68;;;;;;;10.95;88.46;101724.97;5268548;28;20060;-63
2022/05/13 05:43:11;;;;;;;9.80;3.70;;;;;;;11.05;88.82;101735.94;5269321;28;20040;-63
2022/05/13 05:45:43;;;;;;;14.80;4.15;;;;;;;11.05;87.40;101724.41;5273169;28;20119;-63
2022/05/13 05:48:21;;;;;;;15.63;4.00;;;;;;;11.22;87.33;101732.16;5277973;28;20151;-63
2022/05/13 05:50:55;;;;;;;14.77;5.10;;;;;;;11.23;86.94;101739.22;5273300;28;21427;-63
2022/05/13 05:59:07;;;;;;;14.63;4.50;;;;;;;11.52;86.66;101752.47;5272326;28;20647;-63
2022/05/13 06:01:39;;;;;;;17.65;4.82;;;;;;;11.55;85.87;101752.28;5272714;28;20028;-63
2022/05/13 06:04:10;;;;;;;12.68;4.63;;;;;;;11.63;85.47;101751.78;5278626;28;20094;-62
2022/05/13 06:06:41;;;;;;;10.05;3.65;;;;;;;11.76;86.40;101753.53;5269737;28;20178;-62
2022/05/13 06:09:13;;;;;;;14.32;5.00;;;;;;;11.90;84.92;101755.28;5261219;28;20717;-62
2022/05/13 06:11:44;;;;;;;12.00;4.20;;;;;;;11.96;84.40;101757.53;5268241;28;20063;-63
2022/05/13 06:14:16;;;;;;;17.33;4.45;;;;;;;12.10;83.68;101755.75;5271155;28;20110;-62
2022/05/13 06:16:48;;;;;;;14.35;4.57;;;;;;;12.18;82.93;101752.56;5274759;28;20050;-62
2022/05/13 06:19:20;;;;;;;15.82;5.00;;;;;;;12.32;83.15;101756.00;5274239;28;20374;-63
2022/05/13 06:21:51;;;;;;;14.52;4.90;;;;;;;12.39;82.33;101760.91;5273441;28;20443;-63
2022/05/13 06:24:22;;;;;;;12.98;4.88;;;;;;;12.50;82.83;101761.03;5275601;28;20543;-63
2022/05/13 06:26:54;;;;;;;15.45;4.68;;;;;;;12.54;81.83;101757.16;5275766;28;20049;-63
2022/05/13 06:29:26;;;;;;;11.38;4.95;;;;;;;12.58;81.50;101761.38;5275614;28;20082;-63
2022/05/13 06:31:59;;;;;;;15.55;4.50;;;;;;;12.70;82.40;101770.34;5271946;28;20473;-63
2022/05/13 06:34:30;;;;;;;14.73;4.75;;;;;;;12.80;82.93;101773.22;5273753;28;20258;-63
2022/05/13 06:37:01;;;;;;;17.50;5.30;;;;;;;12.86;81.63;101773.63;5277052;28;20067;-63
2022/05/13 06:39:33;;;;;;;14.43;5.30;;;;;;;13.02;81.79;101769.84;5273031;28;20334;-63
2022/05/13 06:42:04;;;;;;;16.05;5.13;;;;;;;13.13;82.10;101781.53;5274910;28;20081;-63
2022/05/13 06:44:35;;;;;;;18.80;5.25;;;;;;;13.22;80.74;101779.16;5270741;28;20353;-62
2022/05/13 06:47:07;;;;;;;12.35;5.72;;;;;;;13.33;80.20;101782.78;5276553;28;20059;-63
2022/05/13 06:49:38;;;;;;;13.93;5.03;;;;;;;13.34;79.30;101791.66;5276034;28;20028;-63
2022/05/13 06:52:13;;;;;;;14.20;5.35;;;;;;;13.42;79.25;101788.44;5274103;28;20089;-63
2022/05/13 06:54:44;;;;;;;;;;;;;;;13.71;80.31;101799.66;5274233;28;20497;-64
2022/05/13 06:57:15;;;;;;;17.65;5.28;;;;;;;13.61;77.86;101791.47;5272433;28;20006;-64
2022/05/13 06:59:47;;;;;;;14.65;4.97;;;;;;;13.74;78.49;101796.78;5275252;28;20764;-63
2022/05/13 07:02:19;;;;;;;16.70;5.10;;;;;;;13.77;77.96;101788.50;5272316;28;20086;-64
2022/05/13 07:04:50;;;;;;;14.32;5.35;;;;;;;13.65;77.17;101794.78;5274898;28;20032;-63
2022/05/13 07:07:21;;;;;;;14.90;5.88;;;;;;;13.77;77.49;101796.56;5275638;28;20386;-63
2022/05/13 07:09:53;;;;;;;12.77;5.25;;;;;;;13.86;77.45;101795.00;5276757;28;20037;-62
2022/05/13 07:12:24;;;;;;;15.10;5.65;;;;;;;13.83;76.76;101790.72;5273656;28;20048;-64
2022/05/13 07:14:56;;;;;;;15.07;5.38;;;;;;;14.11;76.92;101793.97;5275223;28;20025;-63
2022/05/13 07:17:27;;;;;;;17.30;5.80;;;;;;;14.05;77.16;101799.81;5240273;28;1015013;-63
2022/05/13 07:19:59;;;;;;;14.13;6.13;;;;;;;14.01;75.93;101798.34;5276405;28;20039;-63
2022/05/13 07:22:30;;;;;;;13.88;5.95;;;;;;;14.14;77.39;101796.44;5273868;28;20086;-63
2022/05/13 07:25:03;;;;;;;11.27;5.65;;;;;;;14.24;78.01;101797.44;5277872;28;20029;-63
2022/05/13 07:27:35;;;;;;;18.07;5.47;;;;;;;14.31;78.25;101790.63;5276904;28;20048;-63
2022/05/13 07:30:07;;;;;;;14.80;6.15;;;;;;;14.34;76.55;101802.94;5272362;28;20124;-63
2022/05/13 07:32:41;;;;;;;12.00;5.60;;;;;;;14.32;74.77;101792.34;5275715;28;20035;-63
2022/05/13 07:35:12;;;;;;;;;;;;;;;14.54;75.43;101793.38;5277024;28;20075;-63
2022/05/13 07:37:43;;;;;;;13.93;5.97;;;;;;;14.44;73.83;101797.72;5277561;28;19966;-63
2022/05/13 07:43:05;;;;;;;12.45;6.00;;;;;;;14.62;73.34;101807.06;5270188;28;20668;-63
2022/05/13 07:45:36;;;;;;;12.25;6.07;;;;;;;14.70;74.17;101804.63;5271658;28;20033;-63
2022/05/13 07:48:07;;;;;;;13.43;5.50;;;;;;;14.82;72.43;101799.28;5272277;28;20358;-63
2022/05/13 07:50:39;;;;;;;9.80;4.82;;;;;;;15.02;74.89;101811.13;5277257;28;20089;-63
2022/05/13 07:53:10;;;;;;;13.57;5.88;;;;;;;15.18;72.01;101811.59;5277873;28;20032;-64
2022/05/13 07:55:42;;;;;;;12.02;5.10;;;;;;;15.31;71.55;101814.16;5275024;28;20032;-63
2022/05/13 07:58:15;;;;;;;10.93;4.55;;;;;;;15.53;70.92;101815.09;5274355;28;20044;-63
2022/05/13 08:00:46;;;;;;;11.93;5.07;;;;;;;15.73;70.20;101817.03;5277276;28;20746;-64
2022/05/13 08:03:17;;;;;;;13.95;5.03;;;;;;;15.99;70.34;101822.06;5274844;28;20115;-64
2022/05/13 08:05:51;;;;;;;13.55;4.70;;;;;;;15.79;67.51;101829.97;5273628;28;20029;-65
2022/05/13 08:08:30;;;;;;;9.88;4.85;;;;;;;15.69;66.25;101820.94;5277787;28;20086;-64
2022/05/13 08:11:04;;;;;;;12.20;4.75;;;;;;;15.78;67.53;101828.28;5273097;28;20032;-63
2022/05/13 08:13:36;;;;;;;;;;;;;;;16.04;67.60;101828.75;5274692;28;20032;-63
2022/05/13 08:16:11;;;;;;;15.57;5.32;;;;;;;15.86;67.05;101827.63;5275724;28;20555;-63
2022/05/13 08:18:43;;;;;;;10.95;4.72;;;;;;;15.76;65.19;101829.38;5276446;28;20054;-64
2022/05/13 08:21:14;;;;;;;12.55;4.75;;;;;;;15.75;66.79;101839.28;5270490;28;20494;-64
2022/05/13 08:23:46;;;;;;;12.55;3.65;;;;;;;15.72;64.91;101835.94;5275923;28;20327;-63
2022/05/13 08:26:18;;;;;;;11.63;3.65;;;;;;;15.71;65.84;101837.78;5275922;28;20483;-63
2022/05/13 08:28:49;;;;;;;11.90;4.00;;;;;;;15.51;64.09;101838.56;5276180;28;20117;-63
2022/05/13 08:31:20;;;;;;;10.52;4.38;;;;;;;15.59;65.94;101836.09;5274293;28;20059;-64
2022/05/13 08:33:51;;;;;;;12.70;3.85;;;;;;;15.73;66.29;101835.88;5273708;28;20024;-63
2022/05/13 08:36:23;;;;;;;13.65;4.00;;;;;;;15.89;67.53;101840.81;5274477;28;20124;-63
2022/05/13 08:38:54;;;;;;;9.95;3.60;;;;;;;15.97;63.87;101838.34;5273586;28;20025;-63
2022/05/13 08:42:00;;;;;;;10.70;3.72;;;;;;;16.29;64.40;101837.47;5270854;28;21063;-64
2022/05/13 08:44:32;;;;;;;9.38;4.00;;;;;;;16.29;66.73;101847.41;5268187;28;20051;-63
2022/05/13 08:47:12;;;;;;;7.40;3.30;;;;;;;16.27;62.52;101848.38;5272836;28;20028;-64
2022/05/13 08:49:55;;;;;;;11.93;3.75;;;;;;;16.39;61.61;101843.78;5274236;28;20124;-64
2022/05/13 08:55:36;;;;;;;10.85;3.63;;;;;;;16.53;60.62;101839.03;5274475;28;20029;-64
2022/05/13 08:58:11;;;;;;;10.13;3.22;;;;;;;16.50;60.62;101853.63;5275031;28;20032;-63
2022/05/13 09:00:50;;;;;;;9.80;3.30;;;;;;;16.33;60.52;101844.28;5273927;28;20431;-63
2022/05/13 09:03:24;;;;;;;10.77;3.30;;;;;;;16.39;62.89;101843.78;5273074;28;20056;-63
2022/05/13 09:06:16;;;;;;;12.50;3.63;;;;;;;16.61;60.78;101831.16;5272049;28;20064;-63
2022/05/13 09:08:47;;;;;;;9.80;3.25;;;;;;;16.76;60.41;101848.69;5272080;28;20561;-64
2022/05/13 09:11:34;;;;;;;8.10;3.17;;;;;;;16.70;59.49;101838.44;5272909;28;20032;-64
2022/05/13 09:14:23;;;;;;;7.78;3.13;;;;;;;16.54;59.42;101838.91;5274379;28;20466;-65
2022/05/13 09:17:07;;;;;;;9.55;2.75;;;;;;;16.54;59.55;101840.75;5272272;28;20045;-65
2022/05/13 09:19:56;;;;;;;9.05;2.72;;;;;;;16.44;59.35;101841.53;5273572;28;20039;-64
2022/05/13 09:22:41;;;;;;;13.63;3.30;;;;;;;16.41;57.94;101840.94;5272343;28;20074;-64
2022/05/13 09:25:25;;;;;;;8.75;2.55;;;;;;;16.51;57.56;101847.28;5276306;28;20059;-64
2022/05/13 09:27:59;;;;;;;8.77;2.60;;;;;;;16.60;59.37;101841.06;5273527;28;20150;-65
2022/05/13 09:30:37;;;;;;;8.25;2.40;;;;;;;16.63;58.59;101846.22;5274921;28;20806;-64
2022/05/13 09:33:26;;;;;;;9.90;2.35;;;;;;;16.74;57.65;101842.59;5273525;28;20036;-64
2022/05/13 09:36:00;;;;;;;10.00;3.05;;;;;;;16.94;58.95;101851.66;5266260;28;20441;-64
2022/05/13 09:38:39;;;;;;;;;;;;;;;17.05;58.38;101848.88;5272244;28;20028;-64
2022/05/13 09:41:13;;;;;;;7.55;2.05;;;;;;;16.66;55.68;101854.03;5273230;28;19922;-64
2022/05/13 09:43:55;;;;;;;9.23;2.30;;;;;;;16.77;57.53;101857.63;5273284;28;20410;-64
2022/05/13 09:46:33;;;;;;;10.35;2.60;;;;;;;16.93;56.67;101866.13;5275672;28;20063;-64
2022/05/13 09:49:18;;;;;;;9.13;2.63;;;;;;;16.97;55.37;101854.09;5272116;28;20179;-64
2022/05/13 09:51:59;;;;;;;8.43;2.38;;;;;;;17.14;56.84;101859.81;5275070;28;20036;-64
2022/05/13 09:54:33;;;;;;;6.30;2.20;;;;;;;17.07;55.83;101864.94;5269768;28;20068;-65
2022/05/13 09:57:07;;;;;;;;;;;;;;;17.26;55.72;101866.84;5274220;28;20483;-64
2022/05/13 09:59:42;;;;;;;5.40;1.87;;;;;;;17.12;55.47;101861.81;5270164;28;19967;-64
2022/05/13 10:02:29;;;;;;;8.32;2.72;;;;;;;17.17;55.95;101860.41;5273401;28;20297;-64
2022/05/13 10:05:22;;;;;;;7.30;2.10;;;;;;;17.16;57.14;101863.25;5274740;28;20032;-64
2022/05/13 10:07:53;;;;;;;6.40;1.80;;;;;;;17.08;55.07;101858.53;5273181;28;20028;-64
2022/05/13 10:16:30;;;;;;;7.47;1.90;;;;;;;16.96;53.81;101857.75;5274299;28;20103;-65
2022/05/13 10:19:34;;;;;;;9.95;2.42;;;;;;;16.90;54.97;101863.69;5276190;28;20032;-64
2022/05/13 10:22:45;;;;;;;7.82;2.10;;;;;;;16.95;55.56;101871.38;5277402;28;20059;-64
2022/05/13 10:25:20;;;;;;;6.47;2.20;;;;;;;17.07;56.55;101861.34;5275594;28;20044;-64
2022/05/13 10:27:57;;;;;;;8.43;2.10;;;;;;;17.18;55.29;101870.22;5279022;28;20039;-64
2022/05/13 10:30:41;;;;;;;6.38;1.67;;;;;;;17.36;56.59;101856.94;5278984;28;20024;-64
2022/05/13 10:33:22;;;;;;;10.53;2.33;;;;;;;17.57;54.14;101856.00;5276769;28;20028;-63
2022/05/13 10:36:03;;;;;;;8.63;2.53;;;;;;;17.75;55.25;101864.28;5270847;28;20032;-65
2022/05/13 10:38:51;;;;;;;11.13;2.25;;;;;;;17.66;54.05;101873.19;5276585;28;20028;-64
2022/05/13 10:41:33;;;;;;;12.38;2.08;;;;;;;17.60;52.47;101867.38;5276372;28;20073;-64
2022/05/13 10:44:33;;;;;;;8.32;2.03;;;;;;;17.67;54.30;101862.28;5277061;28;20086;-64
2022/05/13 10:47:12;;;;;;;6.35;1.90;;;;;;;17.64;53.27;101858.00;5276086;28;20032;-64
2022/05/13 10:49:44;;;;;;;6.28;2.47;;;;;;;17.64;54.39;101857.13;5276798;28;20032;-64
2022/05/13 10:52:24;;;;;;;9.60;2.25;;;;;;;17.30;52.85;101860.19;5274802;28;20028;-64
2022/05/13 10:55:20;;;;;;;6.93;2.20;;;;;;;17.24;54.16;101861.59;5276047;28;20035;-64
2022/05/13 10:58:06;;;;;;;6.07;2.13;;;;;;;17.33;55.25;101856.34;5278125;28;20077;-65
2022/05/13 11:00:46;;;;;;;7.55;2.30;;;;;;;17.40;54.71;101858.38;5274946;28;20478;-64
2022/05/13 11:03:37;;;;;;;8.25;2.17;;;;;;;17.78;53.40;101864.84;5278381;28;20020;-64
2022/05/13 11:06:21;;;;;;;8.23;1.83;;;;;;;18.22;52.58;101865.34;5276556;28;20025;-64
2022/05/13 11:09:11;;;;;;;8.80;2.70;;;;;;;18.30;52.68;101867.31;5275333;28;20036;-65
2022/05/13 11:11:45;;;;;;;7.20;2.30;;;;;;;18.50;52.38;101862.75;5274825;28;20035;-64
2022/05/13 11:14:46;;;;;;;11.80;2.38;;;;;;;18.82;52.82;101856.19;5277744;28;20414;-64
2022/05/13 11:17:33;;;;;;;5.40;2.15;;;;;;;19.12;51.97;101865.91;5276325;28;20139;-64
2022/05/13 11:20:27;;;;;;;8.93;2.03;;;;;;;18.86;49.40;101868.41;5274447;28;20078;-65
2022/05/13 11:23:43;;;;;;;5.80;2.00;;;;;;;18.68;49.45;101875.50;5276809;28;20105;-65
2022/05/13 11:26:36;;;;;;;9.40;2.25;;;;;;;18.69;50.99;101880.78;5278243;28;20118;-65
2022/05/13 11:29:09;;;;;;;8.30;2.30;;;;;;;18.37;49.38;101875.69;5276171;28;20047;-65
2022/05/13 11:32:03;;;;;;;9.15;2.88;;;;;;;18.33;50.23;101877.88;5273594;28;20033;-65
2022/05/13 11:34:58;;;;;;;10.80;3.10;;;;;;;18.31;49.77;101870.88;5276270;28;20035;-64
2022/05/13 11:37:33;;;;;;;7.30;2.13;;;;;;;18.33;50.33;101871.59;5277405;28;20410;-64
2022/05/13 11:40:14;;;;;;;5.47;2.15;;;;;;;18.42;50.38;101865.31;5275346;28;20379;-65
2022/05/13 11:46:00;;;;;;;5.35;2.45;;;;;;;18.72;50.21;101872.41;5275644;28;20036;-65
2022/05/13 11:48:35;;;;;;;9.13;2.10;;;;;;;18.90;49.73;101868.97;5273502;28;20025;-65
2022/05/13 11:51:18;;;;;;;7.97;2.20;;;;;;;19.09;51.67;101860.78;5273812;28;20040;-65
2022/05/13 11:53:58;;;;;;;7.88;2.15;;;;;;;19.19;46.75;101860.72;5275843;28;20584;-65
2022/05/13 11:56:34;;;;;;;7.97;2.20;;;;;;;19.31;49.05;101869.50;5275569;28;20021;-65
2022/05/13 11:59:29;;;;;;;6.65;2.03;;;;;;;19.46;49.24;101869.88;5274575;28;20035;-66
2022/05/13 12:02:12;;;;;;;6.45;2.20;;;;;;;19.41;47.88;101878.44;5276327;28;20534;-65
2022/05/13 12:05:04;;;;;;;8.48;2.60;;;;;;;19.61;49.06;101886.47;5270944;28;20414;-65
2022/05/13 12:07:50;;;;;;;7.47;2.58;;;;;;;19.39;48.28;101881.28;5272052;28;20459;-65
2022/05/13 12:11:03;;;;;;;7.25;2.83;;;;;;;19.17;47.50;101878.97;5274890;28;20623;-65
2022/05/13 12:13:45;;;;;;;4.78;2.50;;;;;;;19.05;50.48;101872.91;5234963;28;20056;-65
2022/05/13 12:16:36;;;;;;;8.88;3.55;;;;;;;19.02;49.35;101864.22;5274575;28;20446;-66
2022/05/13 12:19:19;;;;;;;8.40;3.00;;;;;;;19.11;48.17;101857.94;5277096;28;20091;-64
2022/05/13 12:22:30;;;;;;;7.15;3.60;;;;;;;19.03;49.45;101871.34;5273830;28;20871;-65
2022/05/13 12:25:06;;;;;;;8.55;3.40;;;;;;;19.00;50.33;101862.53;5251047;28;20068;-65
2022/05/13 12:27:46;;;;;;;11.93;3.67;;;;;;;19.12;51.19;101857.78;5274999;28;20056;-65
2022/05/13 12:30:29;;;;;;;7.88;4.43;;;;;;;19.20;48.56;101865.16;5273911;28;20033;-65
2022/05/13 12:33:29;;;;;;;7.43;5.45;;;;;;;19.34;48.46;101870.06;5284383;28;20044;-65
2022/05/13 12:39:10;;;;;;;9.48;7.50;;;;;;;19.21;47.70;101864.13;5276970;28;20036;-65
2022/05/13 12:41:42;;;;;;;12.17;7.50;;;;;;;19.20;49.60;101866.00;5271121;28;20052;-65
2022/05/13 12:44:13;;;;;;;9.30;7.00;;;;;;;19.30;48.09;101857.00;5268642;28;20160;-65